createdAt,value
2019-06-08T00:00:32.688Z,14.53
2019-06-08T00:01:32.815Z,14.58
2019-06-08T00:02:32.933Z,14.52
2019-06-08T00:03:33.072Z,14.74
2019-06-08T00:04:33.217Z,14.64
2019-06-08T00:05:33.346Z,14.69
2019-06-08T00:06:33.495Z,14.73
2019-06-08T00:07:33.619Z,14.56
2019-06-08T00:08:33.768Z,14.56
2019-06-08T00:09:33.889Z,14.58
2019-06-08T00:10:34.033Z,14.59
2019-06-08T00:11:34.165Z,14.55
2019-06-08T00:12:34.298Z,14.48
2019-06-08T00:13:34.530Z,14.52
2019-06-08T00:14:34.563Z,14.49
2019-06-08T00:15:34.771Z,14.49
2019-06-08T00:16:34.845Z,14.40
2019-06-08T00:17:38.741Z,14.38
2019-06-08T00:18:35.118Z,14.51
2019-06-08T00:19:35.252Z,14.30
2019-06-08T00:20:35.376Z,14.34
2019-06-08T00:21:35.501Z,14.36
2019-06-08T00:22:35.658Z,14.38
2019-06-08T00:23:35.786Z,14.51
2019-06-08T00:24:35.913Z,14.51
2019-06-08T00:25:36.060Z,14.30
2019-06-08T00:26:36.185Z,14.34
2019-06-08T00:27:36.310Z,14.37
2019-06-08T00:28:36.441Z,14.34
2019-06-08T00:29:36.584Z,14.34
2019-06-08T00:30:37.220Z,14.34
2019-06-08T00:31:36.833Z,14.31
2019-06-08T00:32:36.982Z,14.31
2019-06-08T00:33:37.095Z,14.37
2019-06-08T00:34:37.223Z,14.33
2019-06-08T00:35:37.352Z,14.31
2019-06-08T00:36:37.557Z,14.33
2019-06-08T00:37:37.640Z,14.44
2019-06-08T00:38:37.772Z,14.33
2019-06-08T00:39:37.917Z,14.28
2019-06-08T00:40:38.087Z,14.28
2019-06-08T00:41:38.194Z,14.41
2019-06-08T00:42:38.324Z,14.44
2019-06-08T00:43:38.497Z,14.40
2019-06-08T00:44:38.605Z,14.48
2019-06-08T00:45:38.736Z,14.45
2019-06-08T00:46:38.875Z,14.44
2019-06-08T00:47:47.393Z,14.48
2019-06-08T00:48:39.139Z,14.52
2019-06-08T00:49:39.276Z,14.46
2019-06-08T00:50:39.410Z,14.51
2019-06-08T00:51:39.585Z,14.51
2019-06-08T00:52:39.684Z,14.52
2019-06-08T00:53:39.821Z,14.58
2019-06-08T00:54:39.973Z,14.53
2019-06-08T00:55:40.101Z,14.46
2019-06-08T00:56:40.225Z,14.52
2019-06-08T00:57:40.360Z,14.48
2019-06-08T00:58:40.503Z,14.49
2019-06-08T00:59:40.614Z,14.49
2019-06-08T01:00:40.745Z,14.55
2019-06-08T01:01:40.880Z,14.48
2019-06-08T01:02:41.030Z,14.52
2019-06-08T01:03:41.159Z,14.52
2019-06-08T01:04:41.291Z,14.51
2019-06-08T01:05:41.428Z,14.49
2019-06-08T01:06:41.563Z,14.48
2019-06-08T01:07:41.682Z,14.46
2019-06-08T01:08:41.812Z,14.44
2019-06-08T01:09:41.965Z,14.49
2019-06-08T01:10:42.080Z,14.51
2019-06-08T01:11:42.217Z,14.45
2019-06-08T01:12:42.349Z,14.44
2019-06-08T01:13:42.517Z,14.48
2019-06-08T01:14:42.629Z,14.55
2019-06-08T01:15:42.753Z,14.48
2019-06-08T01:16:42.889Z,14.52
2019-06-08T01:17:43.041Z,14.52
2019-06-08T01:18:43.159Z,14.53
2019-06-08T01:19:43.290Z,14.55
2019-06-08T01:20:43.447Z,14.63
2019-06-08T01:21:43.552Z,14.56
2019-06-08T01:22:43.698Z,14.58
2019-06-08T01:23:43.821Z,14.51
2019-06-08T01:24:43.976Z,14.52
2019-06-08T01:25:44.098Z,14.49
2019-06-08T01:26:44.239Z,14.40
2019-06-08T01:27:44.377Z,14.49
2019-06-08T01:28:44.516Z,14.52
2019-06-08T01:29:44.635Z,14.48
2019-06-08T01:30:44.764Z,14.52
2019-06-08T01:31:44.973Z,14.56
2019-06-08T01:32:45.058Z,14.59
2019-06-08T01:33:45.200Z,14.49
2019-06-08T01:34:45.314Z,14.53
2019-06-08T01:35:45.462Z,14.55
2019-06-08T01:36:45.588Z,14.53
2019-06-08T01:37:45.715Z,14.55
2019-06-08T01:38:45.907Z,14.49
2019-06-08T01:39:46.031Z,14.58
2019-06-08T01:40:46.158Z,14.52
2019-06-08T01:41:46.349Z,14.66
2019-06-08T01:42:46.442Z,14.67
2019-06-08T01:43:46.586Z,14.52
2019-06-08T01:44:46.708Z,14.55
2019-06-08T01:45:46.834Z,14.55
2019-06-08T01:46:46.965Z,14.53
2019-06-08T01:47:47.100Z,14.63
2019-06-08T01:48:47.241Z,14.52
2019-06-08T01:49:47.372Z,14.64
2019-06-08T01:50:47.567Z,14.55
2019-06-08T01:51:47.569Z,14.64
2019-06-08T01:52:47.701Z,14.55
2019-06-08T01:53:47.828Z,14.49
2019-06-08T01:54:47.972Z,14.56
2019-06-08T01:55:48.093Z,14.53
2019-06-08T01:56:48.224Z,14.56
2019-06-08T01:57:48.352Z,14.51
2019-06-08T01:58:48.485Z,14.58
2019-06-08T01:59:48.666Z,14.55
2019-06-08T02:00:48.792Z,14.59
2019-06-08T02:01:48.926Z,14.66
2019-06-08T02:02:49.064Z,14.51
2019-06-08T02:03:49.196Z,14.51
2019-06-08T02:04:49.320Z,14.52
2019-06-08T02:05:49.456Z,14.59
2019-06-08T02:06:49.599Z,14.73
2019-06-08T02:07:49.717Z,14.49
2019-06-08T02:08:49.854Z,14.61
2019-06-08T02:09:49.976Z,14.64
2019-06-08T02:10:50.167Z,14.58
2019-06-08T02:11:50.296Z,14.56
2019-06-08T02:12:50.424Z,14.58
2019-06-08T02:13:50.553Z,14.45
2019-06-08T02:14:50.677Z,14.46
2019-06-08T02:15:50.797Z,14.51
2019-06-08T02:16:50.929Z,14.51
2019-06-08T02:17:51.067Z,14.55
2019-06-08T02:18:51.393Z,14.51
2019-06-08T02:19:51.323Z,14.44
2019-06-08T02:20:51.451Z,14.51
2019-06-08T02:21:51.586Z,14.40
2019-06-08T02:22:51.740Z,14.30
2019-06-08T02:23:51.846Z,14.40
2019-06-08T02:24:51.974Z,14.44
2019-06-08T02:25:52.098Z,14.37
2019-06-08T02:26:52.232Z,14.41
2019-06-08T02:27:52.363Z,14.37
2019-06-08T02:28:52.499Z,14.28
2019-06-08T02:29:52.628Z,14.40
2019-06-08T02:30:52.757Z,14.36
2019-06-08T02:31:52.892Z,14.40
2019-06-08T02:32:53.021Z,14.34
2019-06-08T02:33:53.155Z,14.34
2019-06-08T02:34:53.285Z,14.36
2019-06-08T02:35:53.413Z,14.31
2019-06-08T02:36:53.545Z,14.40
2019-06-08T02:37:53.676Z,14.37
2019-06-08T02:38:53.804Z,14.40
2019-06-08T02:39:53.944Z,14.38
2019-06-08T02:40:54.061Z,14.28
2019-06-08T02:41:54.193Z,14.27
2019-06-08T02:42:54.342Z,14.16
2019-06-08T02:43:54.472Z,14.27
2019-06-08T02:44:54.601Z,14.30
2019-06-08T02:45:54.751Z,14.40
2019-06-08T02:46:54.869Z,14.36
2019-06-08T02:47:54.995Z,14.30
2019-06-08T02:49:04.129Z,14.36
2019-06-08T02:49:55.260Z,14.33
2019-06-08T02:50:55.405Z,14.22
2019-06-08T02:51:55.540Z,14.22
2019-06-08T02:52:55.644Z,14.34
2019-06-08T02:53:55.781Z,14.27
2019-06-08T02:54:55.909Z,14.19
2019-06-08T02:55:56.044Z,14.28
2019-06-08T02:56:56.179Z,14.23
2019-06-08T02:57:56.320Z,14.28
2019-06-08T02:58:56.434Z,14.28
2019-06-08T02:59:56.564Z,14.26
2019-06-08T03:00:56.696Z,14.27
2019-06-08T03:01:56.828Z,14.27
2019-06-08T03:02:56.989Z,14.27
2019-06-08T03:03:57.103Z,14.36
2019-06-08T03:04:57.227Z,14.33
2019-06-08T03:05:57.379Z,14.33
2019-06-08T03:06:57.509Z,14.33
2019-06-08T03:07:57.638Z,14.44
2019-06-08T03:08:57.810Z,14.37
2019-06-08T03:09:57.917Z,14.23
2019-06-08T03:10:58.033Z,14.37
2019-06-08T03:11:58.156Z,14.26
2019-06-08T03:12:58.296Z,14.30
2019-06-08T03:13:58.429Z,14.34
2019-06-08T03:14:58.615Z,14.33
2019-06-08T03:15:58.742Z,14.36
2019-06-08T03:16:58.892Z,14.40
2019-06-08T03:17:59.007Z,14.37
2019-06-08T03:18:59.167Z,14.36
2019-06-08T03:19:59.298Z,14.40
2019-06-08T03:20:59.426Z,14.34
2019-06-08T03:21:59.561Z,14.41
2019-06-08T03:22:59.685Z,14.34
2019-06-08T03:23:59.813Z,14.40
2019-06-08T03:24:59.957Z,14.33
2019-06-08T03:26:00.102Z,14.33
2019-06-08T03:27:00.206Z,14.18
2019-06-08T03:28:00.352Z,14.36
2019-06-08T03:29:00.468Z,14.34
2019-06-08T03:30:15.050Z,14.36
2019-06-08T03:31:00.756Z,14.26
2019-06-08T03:32:00.932Z,14.18
2019-06-08T03:33:00.989Z,14.38
2019-06-08T03:34:01.121Z,14.23
2019-06-08T03:35:01.258Z,14.36
2019-06-08T03:36:01.392Z,14.36
2019-06-08T03:37:01.512Z,14.37
2019-06-08T03:38:01.649Z,14.41
2019-06-08T03:39:01.783Z,14.37
2019-06-08T03:40:01.933Z,14.30
2019-06-08T03:41:02.046Z,14.40
2019-06-08T03:42:02.179Z,14.38
2019-06-08T03:43:02.311Z,14.33
2019-06-08T03:44:02.464Z,14.41
2019-06-08T03:45:02.596Z,14.44
2019-06-08T03:46:02.725Z,14.51
2019-06-08T03:47:02.879Z,14.41
2019-06-08T03:48:02.992Z,14.46
2019-06-08T03:49:03.121Z,14.49
2019-06-08T03:50:03.242Z,14.48
2019-06-08T03:51:03.382Z,14.38
2019-06-08T03:52:03.517Z,14.49
2019-06-08T03:53:03.649Z,14.48
2019-06-08T03:54:03.783Z,14.52
2019-06-08T03:55:03.903Z,14.41
2019-06-08T03:56:04.093Z,14.51
2019-06-08T03:57:04.196Z,14.52
2019-06-08T03:58:04.333Z,14.55
2019-06-08T03:59:04.473Z,14.46
2019-06-08T04:00:12.900Z,14.51
2019-06-08T04:01:04.736Z,14.55
2019-06-08T04:02:04.893Z,14.44
2019-06-08T04:03:05.010Z,14.45
2019-06-08T04:04:05.151Z,14.49
2019-06-08T04:05:05.292Z,14.45
2019-06-08T04:06:05.443Z,14.45
2019-06-08T04:07:05.564Z,14.46
2019-06-08T04:08:05.693Z,14.48
2019-06-08T04:09:05.828Z,14.55
2019-06-08T04:10:05.944Z,14.49
2019-06-08T04:11:06.069Z,14.46
2019-06-08T04:12:06.208Z,14.46
2019-06-08T04:13:06.381Z,14.41
2019-06-08T04:14:06.493Z,14.41
2019-06-08T04:15:06.625Z,14.49
2019-06-08T04:16:06.754Z,14.51
2019-06-08T04:17:06.904Z,14.49
2019-06-08T04:18:07.028Z,14.49
2019-06-08T04:19:07.186Z,14.48
2019-06-08T04:20:11.469Z,14.41
2019-06-08T04:21:07.446Z,14.53
2019-06-08T04:22:07.568Z,14.51
2019-06-08T04:23:07.689Z,14.48
2019-06-08T04:24:07.825Z,14.46
2019-06-08T04:25:07.957Z,14.53
2019-06-08T04:26:08.084Z,14.52
2019-06-08T04:27:08.220Z,14.52
2019-06-08T04:28:08.365Z,14.48
2019-06-08T04:29:08.486Z,14.46
2019-06-08T04:30:08.620Z,14.49
2019-06-08T04:31:08.747Z,14.53
2019-06-08T04:32:08.876Z,14.52
2019-06-08T04:33:09.006Z,14.53
2019-06-08T04:34:09.136Z,14.51
2019-06-08T04:35:09.275Z,14.49
2019-06-08T04:36:09.406Z,14.52
2019-06-08T04:37:09.543Z,14.56
2019-06-08T04:38:09.675Z,14.58
2019-06-08T04:39:09.805Z,14.52
2019-06-08T04:40:09.962Z,14.53
2019-06-08T04:41:10.077Z,14.58
2019-06-08T04:42:10.203Z,14.55
2019-06-08T04:43:10.350Z,14.56
2019-06-08T04:44:10.467Z,14.64
2019-06-08T04:45:10.594Z,14.55
2019-06-08T04:46:10.723Z,14.59
2019-06-08T04:47:10.846Z,14.63
2019-06-08T04:48:10.993Z,14.52
2019-06-08T04:49:11.107Z,14.51
2019-06-08T04:50:22.778Z,14.56
2019-06-08T04:51:11.366Z,14.56
2019-06-08T04:52:11.502Z,14.56
2019-06-08T04:53:11.637Z,14.61
2019-06-08T04:54:14.377Z,14.56
2019-06-08T04:55:11.891Z,14.56
2019-06-08T04:56:12.022Z,14.56
2019-06-08T04:57:12.152Z,14.55
2019-06-08T04:58:12.289Z,14.61
2019-06-08T04:59:12.411Z,14.61
2019-06-08T05:00:13.137Z,14.79
2019-06-08T05:01:12.671Z,14.59
2019-06-08T05:02:12.803Z,14.66
2019-06-08T05:03:12.932Z,14.69
2019-06-08T05:04:13.064Z,14.63
2019-06-08T05:05:13.194Z,14.71
2019-06-08T05:06:13.327Z,14.69
2019-06-08T05:07:13.466Z,14.79
2019-06-08T05:08:13.603Z,14.59
2019-06-08T05:09:13.734Z,14.77
2019-06-08T05:10:13.870Z,14.78
2019-06-08T05:11:13.987Z,14.83
2019-06-08T05:12:14.115Z,14.82
2019-06-08T05:13:14.245Z,14.77
2019-06-08T05:14:14.376Z,14.78
2019-06-08T05:15:14.507Z,14.83
2019-06-08T05:16:14.643Z,14.79
2019-06-08T05:17:14.787Z,14.89
2019-06-08T05:18:14.904Z,14.89
2019-06-08T05:19:15.030Z,14.86
2019-06-08T05:20:15.159Z,14.95
2019-06-08T05:21:15.292Z,14.90
2019-06-08T05:22:15.424Z,14.87
2019-06-08T05:23:15.555Z,14.86
2019-06-08T05:24:15.685Z,14.74
2019-06-08T05:25:15.814Z,14.77
2019-06-08T05:26:15.942Z,14.74
2019-06-08T05:27:16.062Z,14.71
2019-06-08T05:28:16.201Z,14.69
2019-06-08T05:29:16.331Z,14.77
2019-06-08T05:30:16.461Z,14.73
2019-06-08T05:31:16.589Z,14.77
2019-06-08T05:32:16.749Z,14.77
2019-06-08T05:33:16.861Z,14.85
2019-06-08T05:34:17.021Z,14.82
2019-06-08T05:35:17.127Z,14.83
2019-06-08T05:36:17.275Z,14.83
2019-06-08T05:37:17.394Z,14.73
2019-06-08T05:38:17.529Z,14.71
2019-06-08T05:39:17.662Z,14.74
2019-06-08T05:40:17.796Z,14.69
2019-06-08T05:41:17.963Z,14.74
2019-06-08T05:42:18.044Z,14.79
2019-06-08T05:43:18.190Z,14.79
2019-06-08T05:44:18.317Z,14.78
2019-06-08T05:45:18.451Z,14.74
2019-06-08T05:46:18.585Z,14.78
2019-06-08T05:47:18.706Z,14.78
2019-06-08T05:48:18.839Z,14.66
2019-06-08T05:49:18.977Z,14.58
2019-06-08T05:50:19.108Z,14.66
2019-06-08T05:51:19.242Z,14.58
2019-06-08T05:52:19.357Z,14.67
2019-06-08T05:53:19.505Z,14.77
2019-06-08T05:54:19.644Z,14.70
2019-06-08T05:55:19.765Z,14.63
2019-06-08T05:56:19.917Z,14.67
2019-06-08T05:57:20.025Z,14.64
2019-06-08T05:58:20.163Z,14.64
2019-06-08T05:59:20.303Z,14.69
2019-06-08T06:00:20.434Z,14.79
2019-06-08T06:01:20.557Z,14.70
2019-06-08T06:02:20.686Z,14.73
2019-06-08T06:03:20.813Z,14.71
2019-06-08T06:04:20.953Z,14.74
2019-06-08T06:05:21.089Z,14.71
2019-06-08T06:06:21.211Z,14.83
2019-06-08T06:07:21.341Z,14.85
2019-06-08T06:08:21.481Z,14.83
2019-06-08T06:09:21.631Z,14.78
2019-06-08T06:10:21.747Z,14.83
2019-06-08T06:11:21.875Z,14.93
2019-06-08T06:12:22.007Z,14.92
2019-06-08T06:13:22.133Z,14.93
2019-06-08T06:14:22.264Z,15.01
2019-06-08T06:15:22.398Z,15.07
2019-06-08T06:16:22.540Z,15.03
2019-06-08T06:17:22.657Z,14.99
2019-06-08T06:18:22.785Z,15.04
2019-06-08T06:19:22.917Z,15.08
2019-06-08T06:20:23.050Z,15.03
2019-06-08T06:21:23.178Z,15.19
2019-06-08T06:22:23.311Z,15.14
2019-06-08T06:23:23.444Z,15.14
2019-06-08T06:24:23.575Z,15.07
2019-06-08T06:25:23.706Z,15.17
2019-06-08T06:26:23.830Z,15.22
2019-06-08T06:27:23.965Z,15.25
2019-06-08T06:28:24.098Z,15.29
2019-06-08T06:29:24.226Z,15.22
2019-06-08T06:30:24.357Z,15.30
2019-06-08T06:31:24.485Z,15.38
2019-06-08T06:32:24.615Z,15.38
2019-06-08T06:33:24.761Z,15.32
2019-06-08T06:34:24.892Z,15.35
2019-06-08T06:35:25.020Z,15.33
2019-06-08T06:36:25.157Z,15.20
2019-06-08T06:37:25.287Z,15.36
2019-06-08T06:38:25.427Z,15.33
2019-06-08T06:39:25.562Z,15.44
2019-06-08T06:40:25.697Z,15.26
2019-06-08T06:41:25.829Z,15.36
2019-06-08T06:42:25.956Z,15.36
2019-06-08T06:43:26.079Z,15.36
2019-06-08T06:44:26.212Z,15.32
2019-06-08T06:45:26.352Z,15.45
2019-06-08T06:46:26.467Z,15.45
2019-06-08T06:47:26.607Z,15.47
2019-06-08T06:48:26.733Z,15.48
2019-06-08T06:49:26.858Z,15.48
2019-06-08T06:50:26.990Z,15.56
2019-06-08T06:51:27.114Z,15.59
2019-06-08T06:52:27.247Z,15.68
2019-06-08T06:53:27.382Z,15.65
2019-06-08T06:54:27.519Z,15.58
2019-06-08T06:55:27.648Z,15.65
2019-06-08T06:56:27.764Z,15.60
2019-06-08T06:57:27.892Z,15.73
2019-06-08T06:58:28.027Z,15.65
2019-06-08T06:59:28.168Z,15.66
2019-06-08T07:00:28.284Z,15.69
2019-06-08T07:01:28.414Z,15.68
2019-06-08T07:02:28.545Z,15.60
2019-06-08T07:03:28.670Z,15.58
2019-06-08T07:04:28.816Z,15.45
2019-06-08T07:05:28.936Z,15.40
2019-06-08T07:06:29.071Z,15.47
2019-06-08T07:07:29.203Z,15.38
2019-06-08T07:08:29.323Z,15.52
2019-06-08T07:09:29.466Z,15.56
2019-06-08T07:10:29.580Z,15.50
2019-06-08T07:11:29.718Z,15.58
2019-06-08T07:12:29.853Z,15.58
2019-06-08T07:13:29.987Z,15.59
2019-06-08T07:14:30.114Z,15.52
2019-06-08T07:15:30.247Z,15.35
2019-06-08T07:16:30.374Z,15.44
2019-06-08T07:17:30.513Z,15.40
2019-06-08T07:18:30.638Z,15.43
2019-06-08T07:19:30.766Z,15.35
2019-06-08T07:20:30.900Z,15.51
2019-06-08T07:21:41.203Z,15.45
2019-06-08T07:22:31.172Z,15.54
2019-06-08T07:23:31.290Z,15.54
2019-06-08T07:24:31.424Z,15.65
2019-06-08T07:25:31.588Z,15.69
2019-06-08T07:26:31.689Z,15.68
2019-06-08T07:27:31.818Z,15.73
2019-06-08T07:28:31.950Z,15.77
2019-06-08T07:29:32.086Z,15.65
2019-06-08T07:30:32.212Z,15.72
2019-06-08T07:31:32.340Z,15.80
2019-06-08T07:32:32.471Z,15.87
2019-06-08T07:33:32.650Z,15.85
2019-06-08T07:34:32.761Z,15.99
2019-06-08T07:35:32.888Z,15.84
2019-06-08T07:36:33.023Z,16.00
2019-06-08T07:37:33.215Z,16.03
2019-06-08T07:38:33.315Z,15.93
2019-06-08T07:39:33.449Z,16.02
2019-06-08T07:40:33.586Z,15.98
2019-06-08T07:41:33.783Z,16.03
2019-06-08T07:42:33.845Z,16.03
2019-06-08T07:43:33.978Z,16.06
2019-06-08T07:44:34.119Z,15.99
2019-06-08T07:45:34.245Z,16.02
2019-06-08T07:46:34.371Z,15.96
2019-06-08T07:47:34.506Z,15.85
2019-06-08T07:48:34.641Z,15.95
2019-06-08T07:49:34.768Z,15.99
2019-06-08T07:50:34.896Z,15.98
2019-06-08T07:51:35.052Z,16.02
2019-06-08T07:52:35.186Z,15.88
2019-06-08T07:53:35.313Z,15.80
2019-06-08T07:54:35.447Z,15.70
2019-06-08T07:55:35.664Z,15.65
2019-06-08T07:56:35.740Z,15.58
2019-06-08T07:57:35.888Z,15.62
2019-06-08T07:58:35.989Z,15.63
2019-06-08T07:59:36.120Z,15.58
2019-06-08T08:00:36.232Z,15.63
2019-06-08T08:01:36.797Z,15.73
2019-06-08T08:02:36.531Z,15.84
2019-06-08T08:03:36.657Z,15.78
2019-06-08T08:04:36.797Z,15.70
2019-06-08T08:05:36.938Z,15.72
2019-06-08T08:06:37.067Z,15.78
2019-06-08T08:07:37.314Z,15.85
2019-06-08T08:08:37.328Z,15.91
2019-06-08T08:09:37.460Z,15.84
2019-06-08T08:10:37.614Z,15.84
2019-06-08T08:11:37.739Z,15.88
2019-06-08T08:12:37.871Z,15.88
2019-06-08T08:13:38.004Z,15.98
2019-06-08T08:14:38.175Z,16.03
2019-06-08T08:15:38.293Z,16.14
2019-06-08T08:16:38.407Z,16.40
2019-06-08T08:17:38.554Z,16.40
2019-06-08T08:18:38.709Z,16.46
2019-06-08T08:19:38.837Z,16.46
2019-06-08T08:20:38.960Z,16.46
2019-06-08T08:21:40.953Z,16.44
2019-06-08T08:22:39.243Z,16.64
2019-06-08T08:23:39.372Z,16.73
2019-06-08T08:24:39.507Z,16.87
2019-06-08T08:25:39.647Z,16.80
2019-06-08T08:26:39.786Z,16.77
2019-06-08T08:27:39.916Z,16.64
2019-06-08T08:28:40.046Z,16.74
2019-06-08T08:29:40.202Z,16.65
2019-06-08T08:30:40.327Z,16.51
2019-06-08T08:31:40.458Z,16.54
2019-06-08T08:32:40.615Z,16.62
2019-06-08T08:33:40.743Z,16.57
2019-06-08T08:34:40.873Z,16.69
2019-06-08T08:35:41.002Z,16.69
2019-06-08T08:36:41.162Z,16.72
2019-06-08T08:37:41.313Z,16.76
2019-06-08T08:38:41.423Z,16.72
2019-06-08T08:39:41.575Z,16.76
2019-06-08T08:40:41.684Z,16.70
2019-06-08T08:41:41.832Z,16.73
2019-06-08T08:42:41.944Z,16.83
2019-06-08T08:43:42.089Z,16.82
2019-06-08T08:44:42.218Z,16.76
2019-06-08T08:45:42.361Z,16.57
2019-06-08T08:46:42.575Z,16.51
2019-06-08T08:47:42.655Z,16.51
2019-06-08T08:48:42.780Z,16.61
2019-06-08T08:49:42.956Z,16.52
2019-06-08T08:50:43.051Z,16.44
2019-06-08T08:51:43.175Z,16.57
2019-06-08T08:52:43.337Z,16.55
2019-06-08T08:53:43.481Z,16.65
2019-06-08T08:54:43.607Z,16.70
2019-06-08T08:55:43.738Z,16.55
2019-06-08T08:56:43.894Z,16.55
2019-06-08T08:57:44.013Z,16.52
2019-06-08T08:58:44.155Z,16.58
2019-06-08T08:59:44.291Z,16.43
2019-06-08T09:00:44.447Z,16.52
2019-06-08T09:01:44.575Z,16.58
2019-06-08T09:02:44.713Z,16.61
2019-06-08T09:03:44.899Z,16.67
2019-06-08T09:04:47.569Z,16.79
2019-06-08T09:05:45.116Z,16.76
2019-06-08T09:06:45.244Z,16.64
2019-06-08T09:07:48.035Z,16.82
2019-06-08T09:08:45.514Z,16.79
2019-06-08T09:09:48.063Z,16.74
2019-06-08T09:10:47.909Z,16.77
2019-06-08T09:11:48.418Z,16.67
2019-06-08T09:12:48.361Z,16.84
2019-06-08T09:13:48.703Z,16.91
2019-06-08T09:14:47.901Z,16.97
2019-06-08T09:15:47.987Z,17.12
2019-06-08T09:16:48.150Z,17.27
2019-06-08T09:17:48.299Z,17.19
2019-06-08T09:18:47.962Z,17.24
2019-06-08T09:19:48.119Z,17.31
2019-06-08T09:20:47.909Z,17.20
2019-06-08T09:21:48.175Z,17.04
2019-06-08T09:22:56.438Z,16.91
2019-06-08T09:23:48.611Z,16.92
2019-06-08T09:24:48.555Z,16.88
2019-06-08T09:25:48.409Z,16.92
2019-06-08T09:26:47.964Z,16.80
2019-06-08T09:27:48.408Z,16.97
2019-06-08T09:28:48.227Z,16.92
2019-06-08T09:29:48.445Z,17.01
2019-06-08T09:30:48.550Z,17.06
2019-06-08T09:31:49.141Z,17.12
2019-06-08T09:32:48.787Z,17.02
2019-06-08T09:34:06.680Z,17.02
2019-06-08T09:34:54.622Z,17.10
2019-06-08T09:35:49.127Z,17.07
2019-06-08T09:36:49.269Z,16.94
2019-06-08T09:37:49.402Z,16.97
2019-06-08T09:38:49.888Z,16.92
2019-06-08T09:39:49.657Z,16.90
2019-06-08T09:40:49.781Z,16.87
2019-06-08T09:41:49.916Z,16.91
2019-06-08T09:42:51.430Z,16.91
2019-06-08T09:43:50.193Z,16.98
2019-06-08T09:44:50.317Z,17.06
2019-06-08T09:45:50.449Z,17.27
2019-06-08T09:46:50.628Z,17.46
2019-06-08T09:47:50.741Z,17.63
2019-06-08T09:48:50.872Z,17.76
2019-06-08T09:49:51.018Z,17.83
2019-06-08T09:50:51.155Z,17.81
2019-06-08T09:51:51.299Z,17.83
2019-06-08T09:53:06.273Z,17.72
2019-06-08T09:53:51.566Z,17.59
2019-06-08T09:54:51.698Z,17.68
2019-06-08T09:55:53.275Z,17.35
2019-06-08T09:56:53.593Z,17.30
2019-06-08T09:57:54.510Z,17.14
2019-06-08T09:58:52.230Z,16.98
2019-06-08T09:59:54.756Z,16.97
2019-06-08T10:00:54.551Z,16.74
2019-06-08T10:01:54.172Z,16.82
2019-06-08T10:02:54.632Z,16.84
2019-06-08T10:03:54.313Z,16.95
2019-06-08T10:04:54.125Z,17.06
2019-06-08T10:05:54.233Z,17.28
2019-06-08T10:06:54.318Z,17.35
2019-06-08T10:07:54.486Z,17.39
2019-06-08T10:08:54.289Z,17.43
2019-06-08T10:09:54.259Z,17.52
2019-06-08T10:10:54.497Z,17.54
2019-06-08T10:11:54.266Z,17.68
2019-06-08T10:12:54.558Z,17.57
2019-06-08T10:13:54.525Z,17.66
2019-06-08T10:14:54.623Z,17.57
2019-06-08T10:15:54.909Z,17.52
2019-06-08T10:16:54.640Z,17.34
2019-06-08T10:17:54.869Z,17.37
2019-06-08T10:18:55.113Z,17.41
2019-06-08T10:19:57.901Z,17.37
2019-06-08T10:20:58.050Z,17.34
2019-06-08T10:21:56.791Z,17.20
2019-06-08T10:22:57.251Z,17.31
2019-06-08T10:23:58.296Z,17.31
2019-06-08T10:24:56.967Z,17.22
2019-06-08T10:25:58.280Z,17.17
2019-06-08T10:26:57.164Z,16.98
2019-06-08T10:28:00.060Z,17.02
2019-06-08T10:28:58.720Z,17.14
2019-06-08T10:29:58.648Z,17.09
2019-06-08T10:30:59.655Z,17.20
2019-06-08T10:31:57.235Z,17.28
2019-06-08T10:33:00.446Z,17.32
2019-06-08T10:34:01.483Z,17.25
2019-06-08T10:35:00.033Z,17.31
2019-06-08T10:36:01.489Z,17.43
2019-06-08T10:37:00.698Z,17.41
2019-06-08T10:38:01.520Z,17.57
2019-06-08T10:39:01.609Z,17.56
2019-06-08T10:40:01.593Z,17.56
2019-06-08T10:41:04.786Z,17.39
2019-06-08T10:42:01.093Z,17.41
2019-06-08T10:43:00.700Z,17.43
2019-06-08T10:43:59.183Z,17.24
2019-06-08T10:45:02.826Z,17.20
2019-06-08T10:46:04.925Z,17.22
2019-06-08T10:47:01.598Z,17.24
2019-06-08T10:48:00.835Z,17.31
2019-06-08T10:48:59.607Z,17.27
2019-06-08T10:50:05.427Z,17.28
2019-06-08T10:51:02.328Z,17.31
2019-06-08T10:52:02.172Z,17.17
2019-06-08T10:53:02.508Z,17.06
2019-06-08T10:53:59.968Z,17.13
2019-06-08T10:55:01.551Z,17.20
2019-06-08T10:56:01.349Z,17.19
2019-06-08T10:57:02.543Z,17.12
2019-06-08T10:58:00.206Z,17.19
2019-06-08T10:59:02.334Z,17.16
2019-06-08T11:00:01.467Z,17.32
2019-06-08T11:01:03.878Z,17.31
2019-06-08T11:02:02.720Z,17.35
2019-06-08T11:03:03.307Z,17.41
2019-06-08T11:04:01.956Z,17.35
2019-06-08T11:05:04.680Z,17.22
2019-06-08T11:06:02.935Z,17.19
2019-06-08T11:07:07.157Z,17.07
2019-06-08T11:08:02.949Z,17.07
2019-06-08T11:09:04.243Z,17.16
2019-06-08T11:10:02.426Z,17.14
2019-06-08T11:11:02.871Z,17.10
2019-06-08T11:12:03.183Z,17.09
2019-06-08T11:13:06.279Z,17.01
2019-06-08T11:14:03.815Z,17.06
2019-06-08T11:15:03.546Z,17.01
2019-06-08T11:16:03.998Z,16.94
2019-06-08T11:17:02.860Z,16.98
2019-06-08T11:18:06.665Z,16.94
2019-06-08T11:19:04.291Z,16.97
2019-06-08T11:20:04.792Z,16.94
2019-06-08T11:21:03.677Z,16.92
2019-06-08T11:22:06.170Z,17.04
2019-06-08T11:23:03.596Z,17.06
2019-06-08T11:24:13.318Z,17.06
2019-06-08T11:25:04.446Z,17.10
2019-06-08T11:26:12.172Z,17.13
2019-06-08T11:27:05.567Z,17.25
2019-06-08T11:28:05.477Z,17.16
2019-06-08T11:29:05.076Z,17.16
2019-06-08T11:30:11.502Z,17.14
2019-06-08T11:31:05.958Z,17.24
2019-06-08T11:32:05.785Z,17.25
2019-06-08T11:33:06.130Z,17.35
2019-06-08T11:34:06.155Z,17.41
2019-06-08T11:35:06.469Z,17.45
2019-06-08T11:36:07.198Z,17.37
2019-06-08T11:37:09.359Z,17.45
2019-06-08T11:38:06.719Z,17.49
2019-06-08T11:39:06.810Z,17.38
2019-06-08T11:40:07.151Z,17.39
2019-06-08T11:41:09.382Z,17.43
2019-06-08T11:42:09.187Z,17.50
2019-06-08T11:43:06.484Z,17.39
2019-06-08T11:44:08.968Z,17.31
2019-06-08T11:45:09.157Z,17.34
2019-06-08T11:46:06.729Z,17.32
2019-06-08T11:47:09.753Z,17.35
2019-06-08T11:48:06.808Z,17.31
2019-06-08T11:49:12.550Z,17.32
2019-06-08T11:50:09.603Z,17.24
2019-06-08T11:51:09.574Z,17.39
2019-06-08T11:52:08.964Z,17.32
2019-06-08T11:53:10.596Z,17.31
2019-06-08T11:54:25.464Z,17.24
2019-06-08T11:55:11.222Z,17.32
2019-06-08T11:56:10.049Z,17.31
2019-06-08T11:57:10.852Z,17.39
2019-06-08T11:58:10.440Z,17.50
2019-06-08T11:59:11.469Z,17.39
2019-06-08T12:00:14.986Z,17.46
2019-06-08T12:01:11.648Z,17.49
2019-06-08T12:02:11.110Z,17.49
2019-06-08T12:03:11.274Z,17.47
2019-06-08T12:04:09.937Z,17.45
2019-06-08T12:05:11.253Z,17.46
2019-06-08T12:06:12.050Z,17.54
2019-06-08T12:07:11.143Z,17.65
2019-06-08T12:08:10.591Z,17.53
2019-06-08T12:09:12.287Z,17.53
2019-06-08T12:10:12.482Z,17.62
2019-06-08T12:11:16.315Z,17.65
2019-06-08T12:12:17.144Z,17.53
2019-06-08T12:13:12.777Z,17.57
2019-06-08T12:14:11.451Z,17.52
2019-06-08T12:15:13.202Z,17.62
2019-06-08T12:16:15.862Z,17.71
2019-06-08T12:17:15.348Z,17.73
2019-06-08T12:18:12.399Z,17.79
2019-06-08T12:19:15.050Z,17.90
2019-06-08T12:20:17.080Z,17.99
2019-06-08T12:21:12.883Z,17.99
2019-06-08T12:22:13.027Z,17.93
2019-06-08T12:23:12.070Z,17.86
2019-06-08T12:24:12.381Z,18.13
2019-06-08T12:25:12.240Z,18.11
2019-06-08T12:26:12.274Z,18.17
2019-06-08T12:27:23.779Z,18.28
2019-06-08T12:28:12.580Z,18.38
2019-06-08T12:29:13.449Z,18.38
2019-06-08T12:30:20.531Z,18.38
2019-06-08T12:31:17.342Z,18.30
2019-06-08T12:32:14.034Z,18.31
2019-06-08T12:33:13.878Z,18.33
2019-06-08T12:34:13.498Z,18.36
2019-06-08T12:35:13.897Z,18.43
2019-06-08T12:36:15.588Z,18.30
2019-06-08T12:37:17.987Z,18.24
2019-06-08T12:38:14.271Z,18.12
2019-06-08T12:39:14.270Z,18.18
2019-06-08T12:40:16.047Z,17.97
2019-06-08T12:41:14.455Z,18.05
2019-06-08T12:42:18.446Z,18.03
2019-06-08T12:43:15.739Z,18.03
2019-06-08T12:44:15.544Z,18.02
2019-06-08T12:45:15.457Z,18.06
2019-06-08T12:46:16.141Z,18.08
2019-06-08T12:47:17.964Z,18.20
2019-06-08T12:48:18.423Z,18.28
2019-06-08T12:49:16.478Z,18.43
2019-06-08T12:50:16.507Z,18.54
2019-06-08T12:51:17.241Z,18.66
2019-06-08T12:52:16.767Z,18.49
2019-06-08T12:53:20.144Z,18.63
2019-06-08T12:54:16.855Z,18.63